createdAt,value
2022-12-09T00:18:29.195Z,18.6
2022-12-09T00:48:29.231Z,18.5
2022-12-09T01:18:28.882Z,18.5
2022-12-09T01:48:29.149Z,18.3
2022-12-09T02:18:29.163Z,18.3
2022-12-09T02:48:29.195Z,18.2
2022-12-09T03:18:28.914Z,18.2
2022-12-09T03:48:29.167Z,18.1
2022-12-09T04:18:29.194Z,18.1
2022-12-09T04:48:29.356Z,18.2
2022-12-09T05:18:29.197Z,18.4
2022-12-09T05:48:29.202Z,18.5
2022-12-09T06:18:29.174Z,18.8
2022-12-09T06:48:29.194Z,18.9
2022-12-09T07:18:29.215Z,19.0
2022-12-09T07:48:29.240Z,19.1
2022-12-09T08:18:28.887Z,19.1
2022-12-09T08:48:29.177Z,19.2
2022-12-09T09:18:29.211Z,19.3
2022-12-09T09:48:29.184Z,19.3
2022-12-09T10:18:29.207Z,19.3
2022-12-09T10:48:29.188Z,19.2
2022-12-09T11:18:29.249Z,19.2
2022-12-09T11:48:29.190Z,19.3
2022-12-09T12:18:29.184Z,19.3
2022-12-09T12:48:29.167Z,19.3
2022-12-09T13:18:28.896Z,19.3
2022-12-09T13:48:29.184Z,19.3
2022-12-09T14:18:29.196Z,19.3
2022-12-09T14:48:29.400Z,19.4
2022-12-09T15:18:29.210Z,19.4
2022-12-09T15:48:29.325Z,19.4
2022-12-09T16:18:29.176Z,19.4
2022-12-09T16:48:28.888Z,19.4
2022-12-09T17:18:29.351Z,19.4
2022-12-09T17:48:29.197Z,19.5
2022-12-09T18:18:29.194Z,19.5
2022-12-09T18:48:29.153Z,19.5
2022-12-09T19:18:29.184Z,19.6
2022-12-09T19:48:29.158Z,19.5
2022-12-09T20:18:29.151Z,19.4
2022-12-09T20:48:28.895Z,19.4
2022-12-09T21:18:28.883Z,19.3
2022-12-09T21:48:29.158Z,19.1
2022-12-09T22:18:29.179Z,19.0
2022-12-09T22:48:29.192Z,18.8
2022-12-09T23:18:29.161Z,18.8
2022-12-09T23:48:29.192Z,18.6
